sensor_id;sensor_type;location;lat;lon;timestamp;P1;durP1;ratioP1;P2;durP2;ratioP2
30052;SDS011;17074;52.478;13.534;2022-08-02T00:01:30;2.83;;;1.65;;
30052;SDS011;17074;52.478;13.534;2022-08-02T00:03:56;3.88;;;1.35;;
30052;SDS011;17074;52.478;13.534;2022-08-02T00:06:21;2.15;;;1.38;;
30052;SDS011;17074;52.478;13.534;2022-08-02T00:08:47;1.35;;;1.23;;
30052;SDS011;17074;52.478;13.534;2022-08-02T00:11:13;3.05;;;1.63;;
30052;SDS011;17074;52.478;13.534;2022-08-02T00:13:38;2.63;;;1.52;;
30052;SDS011;17074;52.478;13.534;2022-08-02T00:16:04;2.35;;;1.45;;
30052;SDS011;17074;52.478;13.534;2022-08-02T00:18:29;1.70;;;1.17;;
30052;SDS011;17074;52.478;13.534;2022-08-02T00:20:55;2.28;;;1.50;;
30052;SDS011;17074;52.478;13.534;2022-08-02T00:23:21;3.25;;;1.73;;
30052;SDS011;17074;52.478;13.534;2022-08-02T00:25:46;3.45;;;1.80;;
30052;SDS011;17074;52.478;13.534;2022-08-02T00:28:12;2.17;;;1.58;;
30052;SDS011;17074;52.478;13.534;2022-08-02T00:30:38;2.25;;;1.88;;
30052;SDS011;17074;52.478;13.534;2022-08-02T00:33:04;7.72;;;2.20;;
30052;SDS011;17074;52.478;13.534;2022-08-02T00:35:30;3.08;;;1.90;;
30052;SDS011;17074;52.478;13.534;2022-08-02T00:37:56;2.78;;;1.80;;
30052;SDS011;17074;52.478;13.534;2022-08-02T00:40:22;4.03;;;1.70;;
30052;SDS011;17074;52.478;13.534;2022-08-02T00:43:04;2.30;;;1.63;;
30052;SDS011;17074;52.478;13.534;2022-08-02T00:45:33;2.92;;;1.70;;
30052;SDS011;17074;52.478;13.534;2022-08-02T00:48:00;3.70;;;1.50;;
30052;SDS011;17074;52.478;13.534;2022-08-02T00:50:27;2.83;;;1.80;;
30052;SDS011;17074;52.478;13.534;2022-08-02T00:52:53;2.70;;;1.80;;
30052;SDS011;17074;52.478;13.534;2022-08-02T00:55:19;2.90;;;1.80;;
30052;SDS011;17074;52.478;13.534;2022-08-02T00:57:45;4.25;;;2.13;;
30052;SDS011;17074;52.478;13.534;2022-08-02T01:00:11;1.75;;;1.63;;
30052;SDS011;17074;52.478;13.534;2022-08-02T01:02:37;4.13;;;2.00;;
30052;SDS011;17074;52.478;13.534;2022-08-02T01:05:03;4.63;;;1.90;;
30052;SDS011;17074;52.478;13.534;2022-08-02T01:07:29;3.60;;;2.20;;
30052;SDS011;17074;52.478;13.534;2022-08-02T01:09:55;4.00;;;1.80;;
30052;SDS011;17074;52.478;13.534;2022-08-02T01:12:20;3.28;;;1.95;;
30052;SDS011;17074;52.478;13.534;2022-08-02T01:14:47;3.67;;;2.20;;
30052;SDS011;17074;52.478;13.534;2022-08-02T01:17:19;3.10;;;1.95;;
30052;SDS011;17074;52.478;13.534;2022-08-02T01:19:56;3.95;;;2.20;;
30052;SDS011;17074;52.478;13.534;2022-08-02T01:22:37;4.32;;;2.60;;
30052;SDS011;17074;52.478;13.534;2022-08-02T01:30:41;2.15;;;1.70;;
30052;SDS011;17074;52.478;13.534;2022-08-02T01:33:11;2.90;;;2.00;;
30052;SDS011;17074;52.478;13.534;2022-08-02T01:35:42;2.47;;;2.08;;
30052;SDS011;17074;52.478;13.534;2022-08-02T01:38:22;3.17;;;2.00;;
30052;SDS011;17074;52.478;13.534;2022-08-02T01:41:01;6.95;;;2.35;;
30052;SDS011;17074;52.478;13.534;2022-08-02T01:43:29;3.78;;;2.05;;
30052;SDS011;17074;52.478;13.534;2022-08-02T01:45:57;4.75;;;1.98;;
30052;SDS011;17074;52.478;13.534;2022-08-02T01:48:25;4.97;;;2.00;;
30052;SDS011;17074;52.478;13.534;2022-08-02T01:50:52;4.72;;;2.20;;
30052;SDS011;17074;52.478;13.534;2022-08-02T01:53:19;2.92;;;2.03;;
30052;SDS011;17074;52.478;13.534;2022-08-02T01:55:47;2.70;;;1.77;;
30052;SDS011;17074;52.478;13.534;2022-08-02T01:58:16;3.88;;;1.75;;
30052;SDS011;17074;52.478;13.534;2022-08-02T02:00:45;4.07;;;1.83;;
30052;SDS011;17074;52.478;13.534;2022-08-02T02:03:19;2.17;;;1.80;;
30052;SDS011;17074;52.478;13.534;2022-08-02T02:05:49;2.50;;;2.03;;
30052;SDS011;17074;52.478;13.534;2022-08-02T02:08:23;8.05;;;1.55;;
30052;SDS011;17074;52.478;13.534;2022-08-02T02:10:53;3.85;;;1.63;;
30052;SDS011;17074;52.478;13.534;2022-08-02T02:13:21;2.22;;;1.75;;
30052;SDS011;17074;52.478;13.534;2022-08-02T02:15:48;5.53;;;2.10;;
30052;SDS011;17074;52.478;13.534;2022-08-02T02:18:17;3.92;;;1.60;;
30052;SDS011;17074;52.478;13.534;2022-08-02T02:20:47;2.80;;;1.70;;
30052;SDS011;17074;52.478;13.534;2022-08-02T02:23:13;2.33;;;1.23;;
30052;SDS011;17074;52.478;13.534;2022-08-02T02:25:40;2.67;;;1.60;;
30052;SDS011;17074;52.478;13.534;2022-08-02T02:28:07;3.63;;;1.90;;
30052;SDS011;17074;52.478;13.534;2022-08-02T02:30:38;1.88;;;1.60;;
30052;SDS011;17074;52.478;13.534;2022-08-02T02:33:08;5.07;;;1.67;;
30052;SDS011;17074;52.478;13.534;2022-08-02T02:35:37;5.00;;;1.63;;
30052;SDS011;17074;52.478;13.534;2022-08-02T02:38:06;3.28;;;1.80;;
30052;SDS011;17074;52.478;13.534;2022-08-02T02:40:35;2.92;;;1.70;;
30052;SDS011;17074;52.478;13.534;2022-08-02T02:43:02;3.35;;;1.80;;
30052;SDS011;17074;52.478;13.534;2022-08-02T02:45:28;4.07;;;1.52;;
30052;SDS011;17074;52.478;13.534;2022-08-02T02:47:55;4.50;;;1.55;;
30052;SDS011;17074;52.478;13.534;2022-08-02T02:50:24;3.90;;;1.70;;
30052;SDS011;17074;52.478;13.534;2022-08-02T02:52:50;4.93;;;1.63;;
30052;SDS011;17074;52.478;13.534;2022-08-02T02:55:17;4.43;;;1.77;;
30052;SDS011;17074;52.478;13.534;2022-08-02T02:57:43;2.47;;;1.45;;
30052;SDS011;17074;52.478;13.534;2022-08-02T03:00:10;2.80;;;1.50;;
30052;SDS011;17074;52.478;13.534;2022-08-02T03:02:38;8.43;;;1.50;;
30052;SDS011;17074;52.478;13.534;2022-08-02T03:05:06;2.78;;;1.42;;
30052;SDS011;17074;52.478;13.534;2022-08-02T03:07:33;2.08;;;1.30;;
30052;SDS011;17074;52.478;13.534;2022-08-02T03:09:59;9.20;;;1.67;;
30052;SDS011;17074;52.478;13.534;2022-08-02T03:12:25;4.20;;;1.60;;
30052;SDS011;17074;52.478;13.534;2022-08-02T03:14:52;4.13;;;1.30;;
30052;SDS011;17074;52.478;13.534;2022-08-02T03:17:18;2.25;;;1.10;;
30052;SDS011;17074;52.478;13.534;2022-08-02T03:19:44;1.17;;;0.80;;
30052;SDS011;17074;52.478;13.534;2022-08-02T03:22:10;1.90;;;1.08;;
30052;SDS011;17074;52.478;13.534;2022-08-02T03:24:36;3.92;;;1.55;;
30052;SDS011;17074;52.478;13.534;2022-08-02T03:27:02;5.25;;;1.75;;
30052;SDS011;17074;52.478;13.534;2022-08-02T03:29:28;3.83;;;1.73;;
30052;SDS011;17074;52.478;13.534;2022-08-02T03:31:53;3.22;;;1.77;;
30052;SDS011;17074;52.478;13.534;2022-08-02T03:34:20;1.95;;;1.02;;
30052;SDS011;17074;52.478;13.534;2022-08-02T03:36:47;2.78;;;1.38;;
30052;SDS011;17074;52.478;13.534;2022-08-02T03:39:15;3.10;;;1.45;;
30052;SDS011;17074;52.478;13.534;2022-08-02T03:41:43;4.47;;;1.35;;
30052;SDS011;17074;52.478;13.534;2022-08-02T03:44:11;2.97;;;1.20;;
30052;SDS011;17074;52.478;13.534;2022-08-02T03:46:37;4.32;;;1.65;;
30052;SDS011;17074;52.478;13.534;2022-08-02T03:49:04;4.18;;;1.50;;
30052;SDS011;17074;52.478;13.534;2022-08-02T03:51:32;6.50;;;1.67;;
30052;SDS011;17074;52.478;13.534;2022-08-02T03:53:59;1.75;;;1.33;;
30052;SDS011;17074;52.478;13.534;2022-08-02T03:56:27;4.93;;;1.85;;
30052;SDS011;17074;52.478;13.534;2022-08-02T03:59:10;3.45;;;1.15;;
30052;SDS011;17074;52.478;13.534;2022-08-02T04:01:37;4.07;;;1.50;;
30052;SDS011;17074;52.478;13.534;2022-08-02T04:04:03;3.35;;;1.00;;
30052;SDS011;17074;52.478;13.534;2022-08-02T04:06:29;5.85;;;1.70;;
30052;SDS011;17074;52.478;13.534;2022-08-02T04:08:55;2.90;;;1.45;;
30052;SDS011;17074;52.478;13.534;2022-08-02T04:11:21;4.55;;;1.40;;
30052;SDS011;17074;52.478;13.534;2022-08-02T04:13:59;5.57;;;1.88;;
30052;SDS011;17074;52.478;13.534;2022-08-02T04:16:30;3.35;;;1.27;;
30052;SDS011;17074;52.478;13.534;2022-08-02T04:19:02;4.35;;;1.55;;
30052;SDS011;17074;52.478;13.534;2022-08-02T04:21:33;2.28;;;1.38;;
30052;SDS011;17074;52.478;13.534;2022-08-02T04:24:01;3.83;;;1.45;;
30052;SDS011;17074;52.478;13.534;2022-08-02T04:26:30;4.47;;;1.35;;
30052;SDS011;17074;52.478;13.534;2022-08-02T04:28:58;5.32;;;1.50;;
30052;SDS011;17074;52.478;13.534;2022-08-02T04:31:24;2.80;;;1.30;;
30052;SDS011;17074;52.478;13.534;2022-08-02T04:33:51;3.38;;;1.27;;
30052;SDS011;17074;52.478;13.534;2022-08-02T04:36:17;2.35;;;1.10;;
30052;SDS011;17074;52.478;13.534;2022-08-02T04:38:42;9.15;;;1.80;;
30052;SDS011;17074;52.478;13.534;2022-08-02T04:41:08;7.10;;;1.52;;
30052;SDS011;17074;52.478;13.534;2022-08-02T04:43:34;8.75;;;1.95;;
30052;SDS011;17074;52.478;13.534;2022-08-02T04:46:00;1.85;;;1.23;;
30052;SDS011;17074;52.478;13.534;2022-08-02T04:48:27;3.03;;;1.35;;
30052;SDS011;17074;52.478;13.534;2022-08-02T04:57:37;3.42;;;1.58;;
30052;SDS011;17074;52.478;13.534;2022-08-02T05:00:27;2.80;;;1.63;;
30052;SDS011;17074;52.478;13.534;2022-08-02T05:06:16;4.10;;;1.20;;
30052;SDS011;17074;52.478;13.534;2022-08-02T05:08:43;4.22;;;1.83;;
30052;SDS011;17074;52.478;13.534;2022-08-02T05:14:32;2.08;;;1.20;;
30052;SDS011;17074;52.478;13.534;2022-08-02T05:16:57;3.28;;;1.50;;
30052;SDS011;17074;52.478;13.534;2022-08-02T05:19:23;3.92;;;1.40;;
30052;SDS011;17074;52.478;13.534;2022-08-02T05:21:49;6.32;;;1.42;;
30052;SDS011;17074;52.478;13.534;2022-08-02T05:24:14;4.75;;;1.52;;
30052;SDS011;17074;52.478;13.534;2022-08-02T05:26:40;2.65;;;1.13;;
30052;SDS011;17074;52.478;13.534;2022-08-02T05:29:05;5.57;;;1.42;;
30052;SDS011;17074;52.478;13.534;2022-08-02T05:31:31;4.57;;;1.40;;
30052;SDS011;17074;52.478;13.534;2022-08-02T05:33:56;4.18;;;1.50;;
30052;SDS011;17074;52.478;13.534;2022-08-02T05:36:22;2.90;;;1.30;;
30052;SDS011;17074;52.478;13.534;2022-08-02T05:38:48;5.13;;;1.55;;
30052;SDS011;17074;52.478;13.534;2022-08-02T05:41:17;2.95;;;1.13;;
30052;SDS011;17074;52.478;13.534;2022-08-02T05:43:44;1.95;;;1.13;;
30052;SDS011;17074;52.478;13.534;2022-08-02T05:46:10;1.95;;;1.13;;
30052;SDS011;17074;52.478;13.534;2022-08-02T05:48:35;6.47;;;1.55;;
30052;SDS011;17074;52.478;13.534;2022-08-02T05:51:02;4.80;;;1.45;;
30052;SDS011;17074;52.478;13.534;2022-08-02T05:53:45;4.55;;;1.95;;
30052;SDS011;17074;52.478;13.534;2022-08-02T05:56:38;5.10;;;1.40;;
30052;SDS011;17074;52.478;13.534;2022-08-02T05:59:13;6.43;;;3.20;;
30052;SDS011;17074;52.478;13.534;2022-08-02T06:01:48;11.50;;;1.70;;
30052;SDS011;17074;52.478;13.534;2022-08-02T06:04:19;2.30;;;1.27;;
30052;SDS011;17074;52.478;13.534;2022-08-02T06:06:51;3.83;;;1.40;;
30052;SDS011;17074;52.478;13.534;2022-08-02T06:09:23;2.63;;;1.23;;
30052;SDS011;17074;52.478;13.534;2022-08-02T06:11:50;2.15;;;1.23;;
30052;SDS011;17074;52.478;13.534;2022-08-02T06:14:18;2.88;;;1.50;;
30052;SDS011;17074;52.478;13.534;2022-08-02T06:16:44;3.33;;;1.20;;
30052;SDS011;17074;52.478;13.534;2022-08-02T06:19:10;3.72;;;1.45;;
30052;SDS011;17074;52.478;13.534;2022-08-02T06:21:38;3.60;;;1.70;;
30052;SDS011;17074;52.478;13.534;2022-08-02T06:24:09;7.05;;;1.88;;
30052;SDS011;17074;52.478;13.534;2022-08-02T06:26:36;5.40;;;1.42;;
30052;SDS011;17074;52.478;13.534;2022-08-02T06:29:03;3.58;;;1.77;;
30052;SDS011;17074;52.478;13.534;2022-08-02T06:31:29;4.80;;;1.38;;
30052;SDS011;17074;52.478;13.534;2022-08-02T06:33:55;2.60;;;1.20;;
30052;SDS011;17074;52.478;13.534;2022-08-02T06:39:24;5.63;;;1.55;;
30052;SDS011;17074;52.478;13.534;2022-08-02T06:41:57;5.43;;;1.40;;
30052;SDS011;17074;52.478;13.534;2022-08-02T06:44:26;5.10;;;1.67;;
30052;SDS011;17074;52.478;13.534;2022-08-02T06:46:53;2.47;;;1.30;;
30052;SDS011;17074;52.478;13.534;2022-08-02T06:49:19;4.15;;;1.20;;
30052;SDS011;17074;52.478;13.534;2022-08-02T06:51:44;4.53;;;1.25;;
30052;SDS011;17074;52.478;13.534;2022-08-02T06:54:10;5.63;;;1.67;;
30052;SDS011;17074;52.478;13.534;2022-08-02T06:56:36;5.30;;;1.20;;
30052;SDS011;17074;52.478;13.534;2022-08-02T06:59:02;3.67;;;1.55;;
30052;SDS011;17074;52.478;13.534;2022-08-02T07:01:28;5.28;;;1.10;;
30052;SDS011;17074;52.478;13.534;2022-08-02T07:03:53;2.38;;;0.98;;
30052;SDS011;17074;52.478;13.534;2022-08-02T07:06:19;2.03;;;1.00;;
30052;SDS011;17074;52.478;13.534;2022-08-02T07:08:46;4.90;;;1.63;;
30052;SDS011;17074;52.478;13.534;2022-08-02T07:11:12;4.85;;;1.13;;
30052;SDS011;17074;52.478;13.534;2022-08-02T07:13:37;3.67;;;1.42;;
30052;SDS011;17074;52.478;13.534;2022-08-02T07:16:03;3.38;;;1.13;;
30052;SDS011;17074;52.478;13.534;2022-08-02T07:18:29;5.80;;;1.40;;
30052;SDS011;17074;52.478;13.534;2022-08-02T07:20:55;2.40;;;1.30;;
30052;SDS011;17074;52.478;13.534;2022-08-02T07:23:20;4.35;;;1.50;;
30052;SDS011;17074;52.478;13.534;2022-08-02T07:25:46;5.07;;;1.60;;
30052;SDS011;17074;52.478;13.534;2022-08-02T07:28:13;3.17;;;1.25;;
30052;SDS011;17074;52.478;13.534;2022-08-02T07:30:41;4.32;;;1.60;;
30052;SDS011;17074;52.478;13.534;2022-08-02T07:33:07;3.97;;;1.40;;
30052;SDS011;17074;52.478;13.534;2022-08-02T07:35:34;5.97;;;1.48;;
30052;SDS011;17074;52.478;13.534;2022-08-02T07:38:00;4.72;;;1.33;;
30052;SDS011;17074;52.478;13.534;2022-08-02T07:40:25;2.55;;;1.08;;
30052;SDS011;17074;52.478;13.534;2022-08-02T07:42:52;4.22;;;1.40;;
30052;SDS011;17074;52.478;13.534;2022-08-02T07:45:19;3.60;;;1.38;;
30052;SDS011;17074;52.478;13.534;2022-08-02T07:47:46;6.78;;;1.80;;
30052;SDS011;17074;52.478;13.534;2022-08-02T07:50:13;4.63;;;1.73;;
30052;SDS011;17074;52.478;13.534;2022-08-02T07:52:40;7.22;;;1.60;;
30052;SDS011;17074;52.478;13.534;2022-08-02T07:55:07;3.70;;;1.23;;
30052;SDS011;17074;52.478;13.534;2022-08-02T07:57:34;7.05;;;2.15;;
30052;SDS011;17074;52.478;13.534;2022-08-02T08:00:00;4.03;;;1.55;;
30052;SDS011;17074;52.478;13.534;2022-08-02T08:02:27;4.30;;;1.98;;
30052;SDS011;17074;52.478;13.534;2022-08-02T08:04:53;4.45;;;2.03;;
30052;SDS011;17074;52.478;13.534;2022-08-02T08:07:18;4.55;;;2.05;;
30052;SDS011;17074;52.478;13.534;2022-08-02T08:09:44;13.05;;;2.60;;
30052;SDS011;17074;52.478;13.534;2022-08-02T08:12:11;3.97;;;2.17;;
30052;SDS011;17074;52.478;13.534;2022-08-02T08:14:37;4.60;;;2.38;;
30052;SDS011;17074;52.478;13.534;2022-08-02T08:17:07;2.78;;;2.22;;
30052;SDS011;17074;52.478;13.534;2022-08-02T08:19:33;3.10;;;2.00;;
30052;SDS011;17074;52.478;13.534;2022-08-02T08:21:59;2.70;;;1.90;;
30052;SDS011;17074;52.478;13.534;2022-08-02T08:24:25;3.78;;;2.30;;
30052;SDS011;17074;52.478;13.534;2022-08-02T08:26:52;2.83;;;2.28;;
30052;SDS011;17074;52.478;13.534;2022-08-02T08:29:18;3.08;;;2.15;;
30052;SDS011;17074;52.478;13.534;2022-08-02T08:31:44;4.53;;;2.80;;
30052;SDS011;17074;52.478;13.534;2022-08-02T08:34:09;3.55;;;2.25;;
30052;SDS011;17074;52.478;13.534;2022-08-02T08:36:35;3.65;;;2.20;;
30052;SDS011;17074;52.478;13.534;2022-08-02T08:39:02;5.18;;;2.63;;
30052;SDS011;17074;52.478;13.534;2022-08-02T08:41:28;4.15;;;3.45;;
30052;SDS011;17074;52.478;13.534;2022-08-02T08:43:54;5.35;;;3.20;;
30052;SDS011;17074;52.478;13.534;2022-08-02T08:46:23;5.72;;;2.60;;
30052;SDS011;17074;52.478;13.534;2022-08-02T08:48:52;3.20;;;2.20;;
30052;SDS011;17074;52.478;13.534;2022-08-02T08:51:23;4.35;;;1.73;;
30052;SDS011;17074;52.478;13.534;2022-08-02T08:53:52;3.45;;;1.77;;
30052;SDS011;17074;52.478;13.534;2022-08-02T08:56:20;5.93;;;2.00;;
30052;SDS011;17074;52.478;13.534;2022-08-02T08:58:47;1.48;;;1.30;;
30052;SDS011;17074;52.478;13.534;2022-08-02T09:01:13;4.13;;;1.55;;
30052;SDS011;17074;52.478;13.534;2022-08-02T09:03:40;6.35;;;1.83;;
30052;SDS011;17074;52.478;13.534;2022-08-02T09:06:07;2.72;;;1.67;;
30052;SDS011;17074;52.478;13.534;2022-08-02T09:08:32;4.80;;;1.65;;
30052;SDS011;17074;52.478;13.534;2022-08-02T09:10:58;3.67;;;1.42;;
30052;SDS011;17074;52.478;13.534;2022-08-02T09:13:24;4.38;;;1.67;;
30052;SDS011;17074;52.478;13.534;2022-08-02T09:18:29;3.08;;;1.33;;
30052;SDS011;17074;52.478;13.534;2022-08-02T09:21:00;2.15;;;1.13;;
30052;SDS011;17074;52.478;13.534;2022-08-02T09:23:41;3.38;;;1.30;;
30052;SDS011;17074;52.478;13.534;2022-08-02T09:28:35;5.65;;;1.70;;
30052;SDS011;17074;52.478;13.534;2022-08-02T09:33:37;2.75;;;1.63;;
30052;SDS011;17074;52.478;13.534;2022-08-02T09:36:05;2.22;;;1.20;;
30052;SDS011;17074;52.478;13.534;2022-08-02T09:38:32;2.85;;;1.30;;
30052;SDS011;17074;52.478;13.534;2022-08-02T09:40:59;3.67;;;1.27;;
30052;SDS011;17074;52.478;13.534;2022-08-02T09:46:10;1.27;;;0.90;;
30052;SDS011;17074;52.478;13.534;2022-08-02T09:48:47;4.00;;;1.63;;
30052;SDS011;17074;52.478;13.534;2022-08-02T09:51:18;2.38;;;0.95;;
30052;SDS011;17074;52.478;13.534;2022-08-02T09:53:52;2.45;;;1.17;;
30052;SDS011;17074;52.478;13.534;2022-08-02T09:56:20;3.85;;;1.45;;
30052;SDS011;17074;52.478;13.534;2022-08-02T09:58:47;1.25;;;0.90;;
30052;SDS011;17074;52.478;13.534;2022-08-02T10:01:14;5.65;;;1.50;;
30052;SDS011;17074;52.478;13.534;2022-08-02T10:03:53;1.85;;;1.10;;
30052;SDS011;17074;52.478;13.534;2022-08-02T10:06:20;1.90;;;1.00;;
30052;SDS011;17074;52.478;13.534;2022-08-02T10:08:46;1.42;;;1.08;;
30052;SDS011;17074;52.478;13.534;2022-08-02T10:11:11;2.53;;;0.90;;
30052;SDS011;17074;52.478;13.534;2022-08-02T10:13:38;2.00;;;1.20;;
30052;SDS011;17074;52.478;13.534;2022-08-02T10:16:04;2.72;;;1.00;;
30052;SDS011;17074;52.478;13.534;2022-08-02T10:18:33;2.97;;;1.00;;
30052;SDS011;17074;52.478;13.534;2022-08-02T10:21:00;3.83;;;1.20;;
30052;SDS011;17074;52.478;13.534;2022-08-02T10:23:27;2.10;;;1.05;;
30052;SDS011;17074;52.478;13.534;2022-08-02T10:25:57;3.10;;;1.50;;
30052;SDS011;17074;52.478;13.534;2022-08-02T10:28:25;2.35;;;1.10;;
30052;SDS011;17074;52.478;13.534;2022-08-02T10:31:02;2.42;;;1.10;;
30052;SDS011;17074;52.478;13.534;2022-08-02T10:33:29;5.50;;;1.20;;
30052;SDS011;17074;52.478;13.534;2022-08-02T10:35:59;3.65;;;1.30;;
30052;SDS011;17074;52.478;13.534;2022-08-02T10:38:26;3.35;;;1.27;;
30052;SDS011;17074;52.478;13.534;2022-08-02T10:40:53;6.28;;;1.38;;
30052;SDS011;17074;52.478;13.534;2022-08-02T10:54:18;1.02;;;0.93;;
30052;SDS011;17074;52.478;13.534;2022-08-02T10:57:12;1.10;;;1.00;;
30052;SDS011;17074;52.478;13.534;2022-08-02T11:02:59;2.30;;;1.08;;
30052;SDS011;17074;52.478;13.534;2022-08-02T11:05:29;3.63;;;1.45;;
30052;SDS011;17074;52.478;13.534;2022-08-02T11:07:56;2.70;;;1.30;;
30052;SDS011;17074;52.478;13.534;2022-08-02T11:10:26;1.95;;;1.10;;
30052;SDS011;17074;52.478;13.534;2022-08-02T11:15:29;3.05;;;1.15;;
30052;SDS011;17074;52.478;13.534;2022-08-02T11:17:56;1.92;;;1.30;;
30052;SDS011;17074;52.478;13.534;2022-08-02T11:20:25;1.15;;;1.05;;
30052;SDS011;17074;52.478;13.534;2022-08-02T11:22:52;1.80;;;1.20;;
30052;SDS011;17074;52.478;13.534;2022-08-02T11:27:48;2.13;;;1.10;;
30052;SDS011;17074;52.478;13.534;2022-08-02T11:30:14;2.58;;;1.30;;
30052;SDS011;17074;52.478;13.534;2022-08-02T11:32:40;2.50;;;1.30;;
30052;SDS011;17074;52.478;13.534;2022-08-02T11:35:06;1.55;;;0.90;;
30052;SDS011;17074;52.478;13.534;2022-08-02T11:37:36;2.85;;;1.08;;
30052;SDS011;17074;52.478;13.534;2022-08-02T11:40:04;1.92;;;1.00;;
30052;SDS011;17074;52.478;13.534;2022-08-02T11:42:36;3.13;;;1.10;;
30052;SDS011;17074;52.478;13.534;2022-08-02T11:45:04;2.38;;;1.08;;
30052;SDS011;17074;52.478;13.534;2022-08-02T11:47:31;2.60;;;1.20;;
30052;SDS011;17074;52.478;13.534;2022-08-02T11:50:07;1.40;;;0.90;;
30052;SDS011;17074;52.478;13.534;2022-08-02T11:52:34;4.53;;;1.25;;
30052;SDS011;17074;52.478;13.534;2022-08-02T11:55:01;2.20;;;1.08;;
30052;SDS011;17074;52.478;13.534;2022-08-02T11:57:29;2.67;;;1.10;;
30052;SDS011;17074;52.478;13.534;2022-08-02T11:59:55;1.98;;;1.05;;
30052;SDS011;17074;52.478;13.534;2022-08-02T12:02:22;4.25;;;1.33;;
30052;SDS011;17074;52.478;13.534;2022-08-02T12:04:57;2.08;;;1.08;;
30052;SDS011;17074;52.478;13.534;2022-08-02T12:07:28;3.40;;;1.17;;
30052;SDS011;17074;52.478;13.534;2022-08-02T12:09:59;1.98;;;1.15;;
30052;SDS011;17074;52.478;13.534;2022-08-02T12:12:26;2.97;;;1.27;;
30052;SDS011;17074;52.478;13.534;2022-08-02T12:14:52;2.55;;;1.10;;
30052;SDS011;17074;52.478;13.534;2022-08-02T12:17:24;1.92;;;1.00;;
30052;SDS011;17074;52.478;13.534;2022-08-02T12:20:09;2.47;;;1.15;;
30052;SDS011;17074;52.478;13.534;2022-08-02T12:22:37;3.55;;;1.25;;
30052;SDS011;17074;52.478;13.534;2022-08-02T12:25:17;1.55;;;0.90;;
30052;SDS011;17074;52.478;13.534;2022-08-02T12:27:47;2.70;;;1.20;;
30052;SDS011;17074;52.478;13.534;2022-08-02T12:30:13;1.52;;;1.00;;
30052;SDS011;17074;52.478;13.534;2022-08-02T12:32:41;2.33;;;1.17;;
30052;SDS011;17074;52.478;13.534;2022-08-02T12:37:39;2.53;;;1.20;;
30052;SDS011;17074;52.478;13.534;2022-08-02T12:40:23;4.15;;;1.20;;
30052;SDS011;17074;52.478;13.534;2022-08-02T12:42:50;2.92;;;1.20;;
30052;SDS011;17074;52.478;13.534;2022-08-02T12:45:21;1.95;;;1.17;;
30052;SDS011;17074;52.478;13.534;2022-08-02T12:47:49;2.13;;;1.25;;
30052;SDS011;17074;52.478;13.534;2022-08-02T12:53:08;4.68;;;1.70;;
30052;SDS011;17074;52.478;13.534;2022-08-02T12:55:46;2.53;;;1.23;;
30052;SDS011;17074;52.478;13.534;2022-08-02T12:58:13;5.13;;;1.90;;
30052;SDS011;17074;52.478;13.534;2022-08-02T13:00:39;4.40;;;1.90;;
30052;SDS011;17074;52.478;13.534;2022-08-02T13:03:06;3.05;;;1.23;;
30052;SDS011;17074;52.478;13.534;2022-08-02T13:05:35;2.60;;;1.15;;
30052;SDS011;17074;52.478;13.534;2022-08-02T13:08:01;5.15;;;1.50;;
30052;SDS011;17074;52.478;13.534;2022-08-02T13:10:28;4.13;;;1.58;;
30052;SDS011;17074;52.478;13.534;2022-08-02T13:12:57;2.95;;;1.10;;
30052;SDS011;17074;52.478;13.534;2022-08-02T13:15:27;2.33;;;1.02;;
30052;SDS011;17074;52.478;13.534;2022-08-02T13:17:56;4.63;;;1.65;;
30052;SDS011;17074;52.478;13.534;2022-08-02T13:20:24;5.07;;;1.60;;
30052;SDS011;17074;52.478;13.534;2022-08-02T13:22:52;1.58;;;1.15;;
30052;SDS011;17074;52.478;13.534;2022-08-02T13:25:22;2.95;;;1.40;;
30052;SDS011;17074;52.478;13.534;2022-08-02T13:27:49;4.88;;;1.20;;
30052;SDS011;17074;52.478;13.534;2022-08-02T13:30:15;2.60;;;1.45;;
30052;SDS011;17074;52.478;13.534;2022-08-02T13:32:41;4.47;;;1.38;;
30052;SDS011;17074;52.478;13.534;2022-08-02T13:35:06;4.45;;;1.33;;
30052;SDS011;17074;52.478;13.534;2022-08-02T13:37:33;2.00;;;1.35;;
30052;SDS011;17074;52.478;13.534;2022-08-02T13:39:59;1.95;;;1.05;;
30052;SDS011;17074;52.478;13.534;2022-08-02T13:42:25;2.75;;;1.20;;
30052;SDS011;17074;52.478;13.534;2022-08-02T13:44:51;1.38;;;1.00;;
30052;SDS011;17074;52.478;13.534;2022-08-02T13:47:16;1.25;;;0.95;;
30052;SDS011;17074;52.478;13.534;2022-08-02T13:49:42;2.00;;;1.00;;
30052;SDS011;17074;52.478;13.534;2022-08-02T13:52:08;2.47;;;1.45;;
30052;SDS011;17074;52.478;13.534;2022-08-02T13:57:56;3.22;;;1.30;;
30052;SDS011;17074;52.478;13.534;2022-08-02T14:00:22;1.77;;;1.00;;
30052;SDS011;17074;52.478;13.534;2022-08-02T14:02:48;1.27;;;1.17;;
30052;SDS011;17074;52.478;13.534;2022-08-02T14:05:14;3.50;;;1.20;;
30052;SDS011;17074;52.478;13.534;2022-08-02T14:07:39;2.75;;;1.30;;
30052;SDS011;17074;52.478;13.534;2022-08-02T14:10:05;3.42;;;1.35;;
30052;SDS011;17074;52.478;13.534;2022-08-02T14:12:31;1.95;;;1.10;;
30052;SDS011;17074;52.478;13.534;2022-08-02T14:14:57;1.67;;;1.20;;
30052;SDS011;17074;52.478;13.534;2022-08-02T14:17:23;5.70;;;1.25;;
30052;SDS011;17074;52.478;13.534;2022-08-02T14:19:48;3.28;;;1.20;;
30052;SDS011;17074;52.478;13.534;2022-08-02T14:22:14;1.58;;;1.00;;
30052;SDS011;17074;52.478;13.534;2022-08-02T14:24:40;2.35;;;1.00;;
30052;SDS011;17074;52.478;13.534;2022-08-02T14:27:06;1.63;;;0.90;;
30052;SDS011;17074;52.478;13.534;2022-08-02T14:29:32;1.58;;;1.08;;
30052;SDS011;17074;52.478;13.534;2022-08-02T14:31:58;1.73;;;1.00;;
30052;SDS011;17074;52.478;13.534;2022-08-02T14:34:23;2.70;;;1.30;;
30052;SDS011;17074;52.478;13.534;2022-08-02T14:36:49;2.90;;;1.70;;
30052;SDS011;17074;52.478;13.534;2022-08-02T14:39:14;2.15;;;1.40;;
30052;SDS011;17074;52.478;13.534;2022-08-02T14:41:40;4.93;;;2.08;;
30052;SDS011;17074;52.478;13.534;2022-08-02T14:44:06;2.88;;;2.28;;
30052;SDS011;17074;52.478;13.534;2022-08-02T14:46:32;2.55;;;1.60;;
30052;SDS011;17074;52.478;13.534;2022-08-02T14:49:00;1.48;;;1.05;;
30052;SDS011;17074;52.478;13.534;2022-08-02T14:51:30;2.70;;;1.17;;
30052;SDS011;17074;52.478;13.534;2022-08-02T14:53:57;1.90;;;1.00;;
30052;SDS011;17074;52.478;13.534;2022-08-02T15:03:07;2.10;;;1.20;;
30052;SDS011;17074;52.478;13.534;2022-08-02T15:05:34;1.48;;;1.10;;
30052;SDS011;17074;52.478;13.534;2022-08-02T15:07:59;1.33;;;1.00;;
30052;SDS011;17074;52.478;13.534;2022-08-02T15:10:25;2.28;;;1.13;;
30052;SDS011;17074;52.478;13.534;2022-08-02T15:12:50;5.93;;;2.08;;
30052;SDS011;17074;52.478;13.534;2022-08-02T15:15:16;2.90;;;1.77;;
30052;SDS011;17074;52.478;13.534;2022-08-02T15:17:42;2.20;;;1.27;;
30052;SDS011;17074;52.478;13.534;2022-08-02T15:20:07;3.70;;;1.27;;
30052;SDS011;17074;52.478;13.534;2022-08-02T15:22:33;4.22;;;1.83;;
30052;SDS011;17074;52.478;13.534;2022-08-02T15:24:59;1.63;;;1.10;;
30052;SDS011;17074;52.478;13.534;2022-08-02T15:27:24;3.70;;;1.17;;
30052;SDS011;17074;52.478;13.534;2022-08-02T15:29:50;2.50;;;1.45;;
30052;SDS011;17074;52.478;13.534;2022-08-02T15:32:16;1.52;;;1.27;;
30052;SDS011;17074;52.478;13.534;2022-08-02T15:34:43;2.33;;;1.42;;
30052;SDS011;17074;52.478;13.534;2022-08-02T15:37:09;3.38;;;1.50;;
30052;SDS011;17074;52.478;13.534;2022-08-02T15:39:34;3.78;;;1.65;;
30052;SDS011;17074;52.478;13.534;2022-08-02T15:42:00;3.08;;;1.40;;
30052;SDS011;17074;52.478;13.534;2022-08-02T15:44:26;2.83;;;1.50;;